createdAt,value
2019-06-27T00:00:24.406Z,26.27
2019-06-27T00:02:52.877Z,25.90
2019-06-27T00:05:21.377Z,27.40
2019-06-27T00:07:49.816Z,25.40
2019-06-27T00:10:18.400Z,15.90
2019-06-27T00:12:46.907Z,21.17
2019-06-27T00:15:15.500Z,25.73
2019-06-27T00:17:43.926Z,21.73
2019-06-27T00:20:12.523Z,16.20
2019-06-27T00:22:41.395Z,15.10
2019-06-27T00:25:10.073Z,23.97
2019-06-27T00:27:38.510Z,23.20
2019-06-27T00:30:07.408Z,36.93
2019-06-27T00:32:35.921Z,25.93
2019-06-27T00:35:06.406Z,30.23
2019-06-27T00:37:35.036Z,28.37
2019-06-27T00:40:06.909Z,19.63
2019-06-27T00:42:35.487Z,23.20
2019-06-27T00:45:06.152Z,24.83
2019-06-27T00:47:34.584Z,35.47
2019-06-27T00:50:04.176Z,26.00
2019-06-27T00:52:32.608Z,32.77
2019-06-27T00:55:01.071Z,27.57
2019-06-27T00:57:29.569Z,21.20
2019-06-27T00:59:58.012Z,33.20
2019-06-27T01:02:26.469Z,25.23
2019-06-27T01:04:54.917Z,24.77
2019-06-27T01:07:23.359Z,24.00
2019-06-27T01:09:51.813Z,26.47
2019-06-27T01:12:20.248Z,25.10
2019-06-27T01:14:48.697Z,33.13
2019-06-27T01:17:17.143Z,18.90
2019-06-27T01:19:45.593Z,31.47
2019-06-27T01:22:14.021Z,26.90
2019-06-27T01:24:42.471Z,28.87
2019-06-27T01:27:10.895Z,31.87
2019-06-27T01:29:39.426Z,29.97
2019-06-27T01:32:07.950Z,22.60
2019-06-27T01:34:36.393Z,21.40
2019-06-27T01:37:04.841Z,30.10
2019-06-27T01:39:33.368Z,22.77
2019-06-27T01:42:01.809Z,30.67
2019-06-27T01:44:41.010Z,34.27
2019-06-27T01:47:10.028Z,37.80
2019-06-27T01:49:38.475Z,29.33
2019-06-27T01:52:06.939Z,19.03
2019-06-27T01:54:35.456Z,23.53
2019-06-27T01:57:04.152Z,34.77
2019-06-27T01:59:32.604Z,21.00
2019-06-27T02:02:01.045Z,22.33
2019-06-27T02:04:29.497Z,23.50
2019-06-27T02:06:57.921Z,22.70
2019-06-27T02:09:26.374Z,25.57
2019-06-27T02:11:54.880Z,25.87
2019-06-27T02:14:23.335Z,33.57
2019-06-27T02:16:51.840Z,23.87
2019-06-27T02:19:20.290Z,25.70
2019-06-27T02:21:48.717Z,25.33
2019-06-27T02:24:17.271Z,20.17
2019-06-27T02:26:45.758Z,38.67
2019-06-27T02:29:14.208Z,34.87
2019-06-27T02:31:42.643Z,27.30
2019-06-27T02:34:11.077Z,29.03
2019-06-27T02:36:39.537Z,28.83
2019-06-27T02:39:07.978Z,25.50
2019-06-27T02:41:43.503Z,28.83
2019-06-27T02:44:12.001Z,33.33
2019-06-27T02:46:40.560Z,26.93
2019-06-27T02:49:09.036Z,34.93
2019-06-27T02:51:37.488Z,30.67
2019-06-27T02:54:05.987Z,22.83
2019-06-27T02:56:34.425Z,38.40
2019-06-27T02:59:03.104Z,39.63
2019-06-27T03:01:31.556Z,34.60
2019-06-27T03:04:00.000Z,39.00
2019-06-27T03:06:28.512Z,28.37
2019-06-27T03:08:56.995Z,26.33
2019-06-27T03:11:25.449Z,31.57
2019-06-27T03:13:53.952Z,37.50
2019-06-27T03:16:22.391Z,27.17
2019-06-27T03:18:50.826Z,37.77
2019-06-27T03:21:19.268Z,30.63
2019-06-27T03:23:47.722Z,30.77
2019-06-27T03:26:16.215Z,35.93
2019-06-27T03:28:52.891Z,33.77
2019-06-27T03:31:14.932Z,31.50
2019-06-27T03:33:43.365Z,35.27
2019-06-27T03:36:11.819Z,28.87
2019-06-27T03:38:40.261Z,28.17
2019-06-27T03:41:08.707Z,27.23
2019-06-27T03:43:37.206Z,33.80
2019-06-27T03:46:05.676Z,30.03
2019-06-27T03:48:34.130Z,29.70
2019-06-27T03:51:02.573Z,34.20
2019-06-27T03:53:31.007Z,36.50
2019-06-27T03:55:59.463Z,20.80
2019-06-27T03:58:27.890Z,30.50
2019-06-27T04:00:56.361Z,35.47
2019-06-27T04:03:24.808Z,31.37
2019-06-27T04:05:53.327Z,21.47
2019-06-27T04:08:21.760Z,37.40
2019-06-27T04:10:50.267Z,28.20
2019-06-27T04:13:18.704Z,34.10
2019-06-27T04:15:47.143Z,38.87
2019-06-27T04:18:15.579Z,36.17
2019-06-27T04:20:44.026Z,39.87
2019-06-27T04:23:12.465Z,41.40
2019-06-27T04:25:40.913Z,44.90
2019-06-27T04:28:09.351Z,43.83
2019-06-27T04:30:37.795Z,24.77
2019-06-27T04:33:06.234Z,30.53
2019-06-27T04:35:34.682Z,39.17
2019-06-27T04:38:03.125Z,28.00
2019-06-27T04:40:31.811Z,44.37
2019-06-27T04:43:05.075Z,31.93
2019-06-27T04:45:30.406Z,31.90
2019-06-27T04:47:58.847Z,30.87
2019-06-27T04:50:27.280Z,30.60
2019-06-27T04:52:55.771Z,30.03
2019-06-27T04:55:24.266Z,31.50
2019-06-27T04:57:52.967Z,22.80
2019-06-27T05:00:24.484Z,22.87
2019-06-27T05:02:52.924Z,29.17
2019-06-27T05:05:21.363Z,26.83
2019-06-27T05:07:49.813Z,32.67
2019-06-27T05:10:18.328Z,21.90
2019-06-27T05:12:46.790Z,36.63
2019-06-27T05:15:15.215Z,31.03
2019-06-27T05:17:43.666Z,19.13
2019-06-27T05:20:12.164Z,17.30
2019-06-27T05:22:40.675Z,18.60
2019-06-27T05:25:09.194Z,16.27
2019-06-27T05:27:37.646Z,16.53
2019-06-27T05:30:09.965Z,15.20
2019-06-27T05:32:36.254Z,19.87
2019-06-27T05:35:05.815Z,15.10
2019-06-27T05:37:34.276Z,11.57
2019-06-27T05:40:03.385Z,15.40
2019-06-27T05:42:31.818Z,10.03
2019-06-27T05:45:00.245Z,14.33
2019-06-27T05:47:28.679Z,13.67
2019-06-27T05:49:57.210Z,6.90
2019-06-27T05:52:25.644Z,10.77
2019-06-27T05:54:54.064Z,10.60
2019-06-27T05:57:23.189Z,11.40
2019-06-27T05:59:51.686Z,5.30
2019-06-27T06:02:20.174Z,14.80
2019-06-27T06:04:48.591Z,15.80
2019-06-27T06:07:17.063Z,7.00
2019-06-27T06:09:45.470Z,5.20
2019-06-27T06:12:13.921Z,12.00
2019-06-27T06:14:42.352Z,13.53
2019-06-27T06:17:10.868Z,11.10
2019-06-27T06:19:39.335Z,11.10
2019-06-27T06:22:07.781Z,11.53
2019-06-27T06:24:36.198Z,13.37
2019-06-27T06:27:04.626Z,7.27
2019-06-27T06:29:33.042Z,7.97
2019-06-27T06:32:01.480Z,12.10
2019-06-27T06:34:29.899Z,4.80
2019-06-27T06:36:58.334Z,10.47
2019-06-27T06:39:26.762Z,13.93
2019-06-27T06:41:55.194Z,14.47
2019-06-27T06:44:23.619Z,7.07
2019-06-27T06:46:52.085Z,5.53
2019-06-27T06:49:20.578Z,9.40
2019-06-27T06:51:49.019Z,8.73
2019-06-27T06:54:17.438Z,7.63
2019-06-27T06:56:45.947Z,4.53
2019-06-27T06:59:14.370Z,7.27
2019-06-27T07:01:45.577Z,6.63
2019-06-27T07:04:12.963Z,5.50
2019-06-27T07:06:41.407Z,5.83
2019-06-27T07:09:09.899Z,6.17
2019-06-27T07:11:38.325Z,5.33
2019-06-27T07:14:07.019Z,6.33
2019-06-27T07:16:35.438Z,6.77
2019-06-27T07:19:03.886Z,6.80
2019-06-27T07:21:32.297Z,5.67
2019-06-27T07:24:00.733Z,4.47
2019-06-27T07:26:29.151Z,8.57
2019-06-27T07:28:57.838Z,10.97
2019-06-27T07:31:26.282Z,6.50
2019-06-27T07:33:54.801Z,7.17
2019-06-27T07:36:23.229Z,9.07
2019-06-27T07:38:51.671Z,4.00
2019-06-27T07:41:20.088Z,4.23
2019-06-27T07:43:48.604Z,6.43
2019-06-27T07:46:25.059Z,8.23
2019-06-27T07:48:47.171Z,3.60
2019-06-27T07:51:15.630Z,4.47
2019-06-27T07:53:44.058Z,9.53
2019-06-27T07:56:12.478Z,5.63
2019-06-27T07:58:40.932Z,9.17
2019-06-27T08:01:09.347Z,3.53
2019-06-27T08:03:37.783Z,7.20
2019-06-27T08:06:06.224Z,4.93
2019-06-27T08:08:34.658Z,7.17
2019-06-27T08:11:03.208Z,4.50
2019-06-27T08:13:31.639Z,5.83
2019-06-27T08:16:00.061Z,6.37
2019-06-27T08:18:28.590Z,3.30
2019-06-27T08:20:56.997Z,4.30
2019-06-27T08:23:40.503Z,4.07
2019-06-27T08:25:55.598Z,3.70
2019-06-27T08:28:24.035Z,7.90
2019-06-27T08:30:52.465Z,4.57
2019-06-27T08:33:20.927Z,3.23
2019-06-27T08:35:49.338Z,4.83
2019-06-27T08:38:17.781Z,5.00
2019-06-27T08:40:46.283Z,6.13
2019-06-27T08:43:24.629Z,3.60
2019-06-27T08:45:53.197Z,5.37
2019-06-27T08:48:21.624Z,7.20
2019-06-27T08:50:50.062Z,4.53
2019-06-27T08:53:18.498Z,4.77
2019-06-27T08:55:46.919Z,5.37
2019-06-27T08:58:15.360Z,7.80
2019-06-27T09:00:45.993Z,3.30
2019-06-27T09:03:13.984Z,2.10
2019-06-27T09:05:42.447Z,8.10
2019-06-27T09:08:10.885Z,3.00
2019-06-27T09:10:51.338Z,4.07
2019-06-27T09:13:19.803Z,6.77
2019-06-27T09:15:48.215Z,5.13
2019-06-27T09:18:16.663Z,2.50
2019-06-27T09:20:45.854Z,2.70
2019-06-27T09:23:14.291Z,4.30
2019-06-27T09:25:43.182Z,2.60
2019-06-27T09:28:11.962Z,3.90
2019-06-27T09:30:40.384Z,5.17
2019-06-27T09:33:08.836Z,3.10
2019-06-27T09:35:37.256Z,3.37
2019-06-27T09:38:05.686Z,3.20
2019-06-27T09:40:34.199Z,3.10
2019-06-27T09:43:02.616Z,2.17
2019-06-27T09:45:31.159Z,4.73
2019-06-27T09:47:59.585Z,5.63
2019-06-27T09:50:28.011Z,2.37
2019-06-27T09:52:56.429Z,3.63
2019-06-27T09:55:25.070Z,5.17
2019-06-27T09:57:53.497Z,3.17
2019-06-27T10:00:23.548Z,4.37
2019-06-27T10:02:51.967Z,6.70
2019-06-27T10:05:20.398Z,2.37
2019-06-27T10:07:48.853Z,1.73
2019-06-27T10:10:17.350Z,3.33
2019-06-27T10:12:45.771Z,1.73
2019-06-27T10:15:14.291Z,1.20
2019-06-27T10:17:42.698Z,5.30
2019-06-27T10:20:11.579Z,1.30
2019-06-27T10:22:39.997Z,1.47
2019-06-27T10:25:08.569Z,1.97
2019-06-27T10:27:37.009Z,1.90
2019-06-27T10:30:06.580Z,3.37
2019-06-27T10:32:34.998Z,4.17
2019-06-27T10:35:04.509Z,2.97
2019-06-27T10:37:33.051Z,1.33
2019-06-27T10:40:01.546Z,1.27
2019-06-27T10:42:30.043Z,1.20
2019-06-27T10:44:58.463Z,1.53
2019-06-27T10:47:26.904Z,1.10
2019-06-27T10:49:55.341Z,1.00
2019-06-27T10:52:23.775Z,4.40
2019-06-27T10:54:52.214Z,1.20
2019-06-27T10:57:20.632Z,4.97
2019-06-27T10:59:49.067Z,1.40
2019-06-27T11:02:17.495Z,2.13
2019-06-27T11:04:45.917Z,2.87
2019-06-27T11:07:14.342Z,1.37
2019-06-27T11:09:42.786Z,3.30
2019-06-27T11:12:11.194Z,3.03
2019-06-27T11:14:39.641Z,2.43
2019-06-27T11:17:08.063Z,2.90
2019-06-27T11:19:51.439Z,1.37
2019-06-27T11:22:06.659Z,8.93
2019-06-27T11:24:35.096Z,1.20
2019-06-27T11:27:03.511Z,1.23
2019-06-27T11:29:31.952Z,2.23
2019-06-27T11:32:00.377Z,1.27
2019-06-27T11:34:28.797Z,3.47
2019-06-27T11:36:57.229Z,1.37
2019-06-27T11:39:25.676Z,2.50
2019-06-27T11:41:54.100Z,1.40
2019-06-27T11:44:22.525Z,2.70
2019-06-27T11:46:50.944Z,1.87
2019-06-27T11:49:19.431Z,3.67
2019-06-27T11:51:47.851Z,4.40
2019-06-27T11:54:16.271Z,1.23
2019-06-27T11:56:44.714Z,5.13
2019-06-27T11:59:13.153Z,2.83
2019-06-27T12:01:41.592Z,1.87
2019-06-27T12:04:10.051Z,1.00
2019-06-27T12:06:38.526Z,1.20
2019-06-27T12:09:06.943Z,1.00
2019-06-27T12:11:35.394Z,1.57
2019-06-27T12:14:03.819Z,1.60
2019-06-27T12:16:32.260Z,2.87
2019-06-27T12:19:00.673Z,3.90
2019-06-27T12:21:29.113Z,2.90
2019-06-27T12:23:57.810Z,2.60
2019-06-27T12:26:26.297Z,1.87
2019-06-27T12:28:54.725Z,1.93
2019-06-27T12:31:23.215Z,1.47
2019-06-27T12:34:05.463Z,1.00
2019-06-27T12:36:21.860Z,2.33
2019-06-27T12:38:50.286Z,1.77
2019-06-27T12:41:18.729Z,6.00
2019-06-27T12:43:47.135Z,3.63
2019-06-27T12:46:15.594Z,3.17
2019-06-27T12:48:44.082Z,0.83
2019-06-27T12:51:12.522Z,1.00
2019-06-27T12:53:40.972Z,0.90
2019-06-27T12:56:09.462Z,1.37
2019-06-27T12:58:37.914Z,0.80
2019-06-27T13:01:06.350Z,1.87
2019-06-27T13:03:34.788Z,1.33
2019-06-27T13:06:03.225Z,2.40
2019-06-27T13:08:31.642Z,5.73
2019-06-27T13:11:00.091Z,2.50
2019-06-27T13:13:30.492Z,1.93
2019-06-27T13:15:59.170Z,1.47
2019-06-27T13:18:27.577Z,1.23
2019-06-27T13:20:58.354Z,3.70
2019-06-27T13:23:26.311Z,1.47
2019-06-27T13:25:54.751Z,1.60
2019-06-27T13:28:23.173Z,5.80
2019-06-27T13:30:51.614Z,1.47
2019-06-27T13:33:20.030Z,2.87
2019-06-27T13:35:49.152Z,1.43
2019-06-27T13:38:17.756Z,2.07
2019-06-27T13:40:46.188Z,5.93
2019-06-27T13:43:14.630Z,1.60
2019-06-27T13:45:43.110Z,2.10
2019-06-27T13:48:11.533Z,1.73
2019-06-27T13:50:39.968Z,0.90
2019-06-27T13:53:08.398Z,3.47
2019-06-27T13:55:36.831Z,5.07
2019-06-27T13:58:05.239Z,2.30
2019-06-27T14:00:36.758Z,2.47
2019-06-27T14:03:05.181Z,5.73
2019-06-27T14:05:33.986Z,1.10
2019-06-27T14:08:02.422Z,1.23
2019-06-27T14:10:30.845Z,3.30
2019-06-27T14:12:59.275Z,7.90
2019-06-27T14:15:27.706Z,4.70
2019-06-27T14:17:57.043Z,1.10
2019-06-27T14:20:25.538Z,0.90
2019-06-27T14:22:53.983Z,1.20
2019-06-27T14:25:22.392Z,1.80
2019-06-27T14:27:50.833Z,1.43
2019-06-27T14:30:20.490Z,2.20
2019-06-27T14:32:48.927Z,2.27
2019-06-27T14:35:17.358Z,2.17
2019-06-27T14:37:45.790Z,1.53
2019-06-27T14:40:15.451Z,2.60
2019-06-27T14:42:43.907Z,1.40
2019-06-27T14:45:12.573Z,2.37
2019-06-27T14:47:41.071Z,1.30
2019-06-27T14:50:09.668Z,1.13
2019-06-27T14:52:38.109Z,1.40
2019-06-27T14:55:10.678Z,1.10
2019-06-27T14:57:39.118Z,1.77
2019-06-27T15:00:08.573Z,1.33
2019-06-27T15:02:37.355Z,1.67
2019-06-27T15:05:07.322Z,2.70
2019-06-27T15:07:35.771Z,1.37
2019-06-27T15:10:08.356Z,2.00
2019-06-27T15:12:36.854Z,2.60
2019-06-27T15:15:07.213Z,2.20
2019-06-27T15:17:35.638Z,2.50
2019-06-27T15:20:08.250Z,2.77
2019-06-27T15:22:36.756Z,4.60
2019-06-27T15:25:07.082Z,1.00
2019-06-27T15:27:35.547Z,1.43
2019-06-27T15:30:05.911Z,1.67
2019-06-27T15:32:34.342Z,13.00
2019-06-27T15:35:02.807Z,1.30
2019-06-27T15:37:31.281Z,2.90
2019-06-27T15:39:59.729Z,1.03
2019-06-27T15:42:28.235Z,1.33
2019-06-27T15:44:56.664Z,2.20
2019-06-27T15:47:25.092Z,2.83
2019-06-27T15:49:53.512Z,1.87
2019-06-27T15:52:21.944Z,3.97
2019-06-27T15:54:50.369Z,5.30
2019-06-27T15:57:18.799Z,2.33
2019-06-27T15:59:47.228Z,1.47
2019-06-27T16:02:15.678Z,1.60
2019-06-27T16:04:44.101Z,1.97
2019-06-27T16:07:12.540Z,2.63
2019-06-27T16:09:40.955Z,2.70
2019-06-27T16:12:09.407Z,1.43
2019-06-27T16:14:37.843Z,4.00
2019-06-27T16:17:06.414Z,1.60
2019-06-27T16:19:34.834Z,2.50
2019-06-27T16:22:03.345Z,4.10
2019-06-27T16:24:31.757Z,2.40
2019-06-27T16:27:00.345Z,4.23
2019-06-27T16:29:28.759Z,1.50
2019-06-27T16:31:57.208Z,1.67
2019-06-27T16:34:28.670Z,1.27
2019-06-27T16:36:55.778Z,5.23
2019-06-27T16:39:24.226Z,1.83
2019-06-27T16:41:52.648Z,4.63
2019-06-27T16:44:21.091Z,3.07
2019-06-27T16:46:49.514Z,4.63
2019-06-27T16:49:17.964Z,5.27
2019-06-27T16:51:46.391Z,2.23
2019-06-27T16:54:14.847Z,4.53
2019-06-27T16:56:43.278Z,2.93
2019-06-27T16:59:11.786Z,5.27
2019-06-27T17:01:40.202Z,1.40
2019-06-27T17:04:08.655Z,1.57
2019-06-27T17:06:42.198Z,5.50
2019-06-27T17:09:07.410Z,12.20
2019-06-27T17:11:35.819Z,7.20
2019-06-27T17:14:04.407Z,3.00
2019-06-27T17:16:32.824Z,2.60
2019-06-27T17:19:01.251Z,1.67
2019-06-27T17:21:29.693Z,5.10
2019-06-27T17:23:58.125Z,3.37
2019-06-27T17:26:26.634Z,3.63
2019-06-27T17:28:55.088Z,1.43
2019-06-27T17:31:23.498Z,2.23
2019-06-27T17:33:51.957Z,4.27
2019-06-27T17:36:20.447Z,2.17
2019-06-27T17:38:48.894Z,2.20
2019-06-27T17:41:17.333Z,3.10
2019-06-27T17:43:45.774Z,4.63
2019-06-27T17:46:14.271Z,1.20
2019-06-27T17:48:42.716Z,2.13
2019-06-27T17:51:11.151Z,2.07
2019-06-27T17:53:39.613Z,2.93
2019-06-27T17:56:08.044Z,8.40
2019-06-27T17:58:36.480Z,4.23
2019-06-27T18:01:05.012Z,3.30
2019-06-27T18:03:33.472Z,2.37
2019-06-27T18:06:01.921Z,1.10
2019-06-27T18:08:30.408Z,6.57
2019-06-27T18:10:58.848Z,9.20
2019-06-27T18:13:27.327Z,8.67
2019-06-27T18:15:55.759Z,7.17
2019-06-27T18:18:24.183Z,8.23
2019-06-27T18:20:52.647Z,10.90
2019-06-27T18:23:21.069Z,6.10
2019-06-27T18:25:49.521Z,3.20
2019-06-27T18:28:17.953Z,2.13
2019-06-27T18:30:46.393Z,6.07
2019-06-27T18:33:14.821Z,6.20
2019-06-27T18:35:43.393Z,13.87
2019-06-27T18:38:12.157Z,5.53
2019-06-27T18:40:40.656Z,1.40
2019-06-27T18:43:09.072Z,8.40
2019-06-27T18:45:37.499Z,5.63
2019-06-27T18:48:05.931Z,3.57
2019-06-27T18:50:34.437Z,1.40
2019-06-27T18:53:02.864Z,5.17
2019-06-27T18:55:31.358Z,5.00
2019-06-27T18:57:59.793Z,4.50
2019-06-27T19:00:28.218Z,7.87
2019-06-27T19:02:56.652Z,8.97
2019-06-27T19:05:25.144Z,2.77
2019-06-27T19:07:53.584Z,3.33
2019-06-27T19:10:22.264Z,2.87
2019-06-27T19:12:50.682Z,2.23
2019-06-27T19:15:19.124Z,5.13
2019-06-27T19:17:47.553Z,2.63
2019-06-27T19:20:32.778Z,2.40
2019-06-27T19:23:11.791Z,8.47
2019-06-27T19:25:41.876Z,9.53
2019-06-27T19:28:10.313Z,5.70
2019-06-27T19:30:38.875Z,5.43
2019-06-27T19:33:07.298Z,3.70
2019-06-27T19:35:35.725Z,2.93
2019-06-27T19:38:04.170Z,4.20
2019-06-27T19:40:32.616Z,4.70
2019-06-27T19:43:01.108Z,3.13
2019-06-27T19:45:29.529Z,2.80
2019-06-27T19:47:58.003Z,5.27
2019-06-27T19:50:26.406Z,1.60
2019-06-27T19:52:54.852Z,1.70
2019-06-27T19:55:23.278Z,3.53
2019-06-27T19:57:51.714Z,3.97
2019-06-27T20:00:20.470Z,9.90
2019-06-27T20:02:48.906Z,10.70
2019-06-27T20:05:17.415Z,4.27
2019-06-27T20:07:45.853Z,4.07
2019-06-27T20:10:14.818Z,2.83
2019-06-27T20:12:43.257Z,6.03
2019-06-27T20:15:12.269Z,2.60
2019-06-27T20:17:40.754Z,6.77
2019-06-27T20:20:09.307Z,9.33
2019-06-27T20:22:37.744Z,4.53
2019-06-27T20:25:07.498Z,3.77
2019-06-27T20:27:35.944Z,10.83
2019-06-27T20:30:06.392Z,4.90
2019-06-27T20:32:34.849Z,3.67
2019-06-27T20:35:04.402Z,5.83
2019-06-27T20:37:32.838Z,4.00
2019-06-27T20:40:01.251Z,4.37
2019-06-27T20:42:29.695Z,4.47
2019-06-27T20:44:58.105Z,9.23
2019-06-27T20:47:26.554Z,5.00
2019-06-27T20:49:54.984Z,2.70
2019-06-27T20:52:23.425Z,6.50
2019-06-27T20:54:51.851Z,5.30
2019-06-27T20:57:20.657Z,3.60
2019-06-27T20:59:49.150Z,5.03
2019-06-27T21:02:17.610Z,2.47
2019-06-27T21:04:46.043Z,3.77
2019-06-27T21:07:14.467Z,5.07
2019-06-27T21:09:43.067Z,8.53
2019-06-27T21:12:11.555Z,6.03
2019-06-27T21:14:40.015Z,8.33
2019-06-27T21:17:08.434Z,7.63
2019-06-27T21:19:36.859Z,8.13
2019-06-27T21:22:05.290Z,6.07
2019-06-27T21:24:33.992Z,8.70
2019-06-27T21:27:02.414Z,8.07
2019-06-27T21:29:30.849Z,7.27
2019-06-27T21:31:59.350Z,3.37
2019-06-27T21:34:27.838Z,4.20
2019-06-27T21:36:56.247Z,5.60
2019-06-27T21:39:24.680Z,7.13
2019-06-27T21:41:53.115Z,8.00
2019-06-27T21:44:21.537Z,6.00
2019-06-27T21:46:49.951Z,6.87
2019-06-27T21:49:18.392Z,11.70
2019-06-27T21:51:46.873Z,6.80
2019-06-27T21:54:15.318Z,7.60
2019-06-27T21:56:43.748Z,5.47
2019-06-27T21:59:12.248Z,7.17
2019-06-27T22:01:40.884Z,8.00
2019-06-27T22:04:09.310Z,9.27
2019-06-27T22:06:37.725Z,5.90
2019-06-27T22:09:20.023Z,6.47
2019-06-27T22:11:37.123Z,4.13
2019-06-27T22:14:05.613Z,7.00
2019-06-27T22:16:34.182Z,7.63
2019-06-27T22:19:02.620Z,6.70
2019-06-27T22:21:31.064Z,8.60
2019-06-27T22:23:59.546Z,4.70
2019-06-27T22:26:28.764Z,6.63
2019-06-27T22:28:57.193Z,10.83
2019-06-27T22:31:25.616Z,6.47
2019-06-27T22:33:54.085Z,5.50
2019-06-27T22:36:22.525Z,8.40
2019-06-27T22:39:08.929Z,6.90
2019-06-27T22:41:55.245Z,9.50
2019-06-27T22:44:41.852Z,7.40
2019-06-27T22:47:28.551Z,10.43
2019-06-27T22:49:57.425Z,7.67
2019-06-27T22:52:43.635Z,10.87
2019-06-27T22:55:19.739Z,15.37
2019-06-27T22:57:48.182Z,4.90
2019-06-27T23:00:16.671Z,10.40
2019-06-27T23:02:45.110Z,7.80
2019-06-27T23:05:13.539Z,9.97
2019-06-27T23:07:41.983Z,12.57
2019-06-27T23:10:10.540Z,9.00
2019-06-27T23:12:38.980Z,7.90
2019-06-27T23:15:10.485Z,8.60
2019-06-27T23:17:38.978Z,7.87
2019-06-27T23:20:07.633Z,5.70
2019-06-27T23:22:36.065Z,5.57
2019-06-27T23:25:04.573Z,11.57
2019-06-27T23:27:33.082Z,7.10
2019-06-27T23:30:01.649Z,9.07
2019-06-27T23:32:30.218Z,7.97
2019-06-27T23:34:58.642Z,6.60
2019-06-27T23:37:27.070Z,9.80
2019-06-27T23:39:55.492Z,8.17
2019-06-27T23:42:23.913Z,6.93
2019-06-27T23:44:52.490Z,6.97
2019-06-27T23:47:21.042Z,5.27
2019-06-27T23:49:49.458Z,6.67
2019-06-27T23:52:17.894Z,7.83
2019-06-27T23:54:46.315Z,10.80
2019-06-27T23:57:14.874Z,7.73
2019-06-27T23:59:43.366Z,10.30
